createdAt,value
2022-12-18T00:03:06.446Z,38.4
2022-12-18T00:08:44.476Z,38.4
2022-12-18T00:14:50.336Z,38.4
2022-12-18T00:20:16.830Z,38.3
2022-12-18T00:25:38.258Z,38.3
2022-12-18T00:41:51.963Z,38.2
2022-12-18T00:47:30.130Z,38.1
2022-12-18T00:53:08.530Z,38.1
2022-12-18T00:58:33.089Z,38.1
2022-12-18T01:04:13.880Z,38.1
2022-12-18T01:14:59.701Z,37.9
2022-12-18T01:20:38.610Z,37.9
2022-12-18T01:25:45.533Z,37.9
2022-12-18T01:30:36.443Z,37.9
2022-12-18T01:35:58.199Z,37.9
2022-12-18T01:41:36.031Z,37.8
2022-12-18T01:47:14.609Z,37.8
2022-12-18T01:52:51.341Z,37.8
2022-12-18T02:09:18.237Z,37.9
2022-12-18T02:14:43.282Z,38.3
2022-12-18T02:20:13.611Z,38.8
2022-12-18T02:25:51.652Z,39.4
2022-12-18T02:31:05.178Z,40
2022-12-18T02:36:44.946Z,40.6
2022-12-18T02:47:46.770Z,41
2022-12-18T02:53:26.504Z,41.2
2022-12-18T02:59:04.329Z,41.4
2022-12-18T03:04:14.008Z,41.5
2022-12-18T03:10:00.298Z,41.7
2022-12-18T03:20:44.666Z,42.3
2022-12-18T03:26:13.112Z,42.4
2022-12-18T03:31:35.915Z,42.4
2022-12-18T03:36:58.957Z,42.4
2022-12-18T03:42:23.206Z,42.4
2022-12-18T03:47:30.772Z,42.4
2022-12-18T03:53:15.931Z,42.4
2022-12-18T04:04:03.029Z,42.3
2022-12-18T04:09:26.129Z,42.3
2022-12-18T04:15:22.756Z,42.3
2022-12-18T04:21:00.091Z,42.3
2022-12-18T04:26:39.068Z,42.2
2022-12-18T04:32:19.369Z,42.2
2022-12-18T04:37:25.853Z,42.1
2022-12-18T04:42:49.022Z,42.1
2022-12-18T04:48:35.018Z,42.1
2022-12-18T04:54:13.074Z,42.1
2022-12-18T05:05:17.802Z,42
2022-12-18T05:10:59.781Z,41.9
2022-12-18T05:16:22.449Z,41.9
2022-12-18T05:22:05.338Z,41.9
2022-12-18T05:27:27.582Z,41.8
2022-12-18T05:32:35.012Z,41.8
2022-12-18T05:38:16.638Z,41.8
2022-12-18T05:43:56.433Z,41.7
2022-12-18T05:49:25.864Z,41.7
2022-12-18T05:55:11.762Z,41.6
2022-12-18T06:00:50.134Z,41.6
2022-12-18T06:06:04.815Z,41.6
2022-12-18T06:11:48.720Z,41.4
2022-12-18T06:17:28.865Z,41.4
2022-12-18T06:23:06.421Z,41.5
2022-12-18T06:28:46.196Z,41.5
2022-12-18T06:34:14.819Z,41.4
2022-12-18T06:39:58.943Z,41.4
2022-12-18T06:50:58.741Z,41.3
2022-12-18T06:56:44.416Z,41.3
2022-12-18T07:02:32.837Z,41.2
2022-12-18T07:08:17.633Z,41.1
2022-12-18T07:14:00.248Z,41.1
2022-12-18T07:19:47.354Z,41.1
2022-12-18T07:25:25.350Z,41
2022-12-18T07:30:50.919Z,40.9
2022-12-18T07:36:31.788Z,40.9
2022-12-18T07:42:18.235Z,40.8
2022-12-18T07:48:02.583Z,40.8
2022-12-18T07:53:55.318Z,40.6
2022-12-18T08:00:39.997Z,39.9
2022-12-18T08:06:06.225Z,39.3
2022-12-18T08:11:54.608Z,38.8
2022-12-18T08:17:42.266Z,39.1
2022-12-18T08:23:12.029Z,39.4
2022-12-18T08:29:23.968Z,39.4
2022-12-18T08:35:06.377Z,39.5
2022-12-18T08:40:50.386Z,39.3
2022-12-18T08:46:29.869Z,39.1
2022-12-18T08:52:08.211Z,39.1
2022-12-18T08:57:51.718Z,38.9
2022-12-18T09:03:36.086Z,38.8
2022-12-18T09:08:59.412Z,38.6
2022-12-18T09:14:40.880Z,38.3
2022-12-18T09:20:25.672Z,38.1
2022-12-18T09:25:50.419Z,38
2022-12-18T09:31:17.989Z,37.9
2022-12-18T09:36:58.157Z,37.9
2022-12-18T09:42:25.680Z,38
2022-12-18T09:48:10.222Z,38
2022-12-18T09:53:58.072Z,38
2022-12-18T09:59:20.267Z,38
2022-12-18T10:05:08.505Z,37.9
2022-12-18T10:10:34.908Z,37.9
2022-12-18T10:16:13.299Z,37.6
2022-12-18T10:21:51.127Z,37.4
2022-12-18T10:27:30.255Z,37.4
2022-12-18T10:33:15.161Z,37.4
2022-12-18T10:39:09.739Z,37.3
2022-12-18T10:44:54.729Z,37.3
2022-12-18T10:51:09.564Z,37.2
2022-12-18T10:57:07.916Z,37.1
2022-12-18T11:02:48.489Z,37
2022-12-18T11:08:32.052Z,36.9
2022-12-18T11:13:46.629Z,36.9
2022-12-18T11:19:30.744Z,36.8
2022-12-18T11:25:29.909Z,36.8
2022-12-18T11:31:03.055Z,36.7
2022-12-18T11:36:59.124Z,36.6
2022-12-18T11:42:33.020Z,36.6
2022-12-18T11:48:00.871Z,36.4
2022-12-18T11:53:47.182Z,36.4
2022-12-18T11:59:26.605Z,36.4
2022-12-18T12:05:15.776Z,36.3
2022-12-18T12:11:06.937Z,36.3
2022-12-18T12:16:48.314Z,36.2
2022-12-18T12:22:30.073Z,36.1
2022-12-18T12:28:17.454Z,36.1
2022-12-18T12:33:43.841Z,36
2022-12-18T12:44:37.029Z,35.9
2022-12-18T12:50:15.080Z,35.7
2022-12-18T13:01:01.666Z,35.4
2022-12-18T13:06:34.889Z,35.4
2022-12-18T13:11:57.940Z,35.3
2022-12-18T13:17:44.732Z,34.9
2022-12-18T13:23:17.840Z,34.8
2022-12-18T13:28:59.014Z,34.6
2022-12-18T13:35:18.021Z,34.3
2022-12-18T13:41:08.007Z,34.2
2022-12-18T13:46:54.590Z,34.1
2022-12-18T13:52:42.249Z,33.9
2022-12-18T13:58:12.856Z,33.9
2022-12-18T14:04:00.130Z,33.8
2022-12-18T14:10:06.386Z,33.8
2022-12-18T14:16:20.708Z,33.6
2022-12-18T14:22:15.820Z,33.6
2022-12-18T14:28:07.948Z,33.5
2022-12-18T14:33:39.830Z,33.4
2022-12-18T14:39:18.576Z,33.4
2022-12-18T14:45:13.747Z,33.4
2022-12-18T14:50:54.318Z,33.3
2022-12-18T14:56:40.256Z,33.2
2022-12-18T15:02:28.271Z,33.2
2022-12-18T15:13:43.211Z,33.2
2022-12-18T15:19:29.822Z,33.2
2022-12-18T15:24:54.112Z,33.2
2022-12-18T15:30:39.160Z,33.1
2022-12-18T15:41:03.205Z,33.1
2022-12-18T15:46:49.180Z,33
2022-12-18T15:52:13.946Z,32.9
2022-12-18T15:57:58.535Z,32.9
2022-12-18T16:03:43.394Z,32.9
2022-12-18T16:10:02.897Z,32.8
2022-12-18T16:15:28.293Z,32.8
2022-12-18T16:21:09.545Z,32.7
2022-12-18T16:26:56.066Z,32.5
2022-12-18T16:32:34.535Z,32.4
2022-12-18T16:43:54.749Z,32.2
2022-12-18T16:49:07.350Z,32.1
2022-12-18T16:54:36.242Z,32.1
2022-12-18T17:00:05.384Z,32.1
2022-12-18T17:05:36.838Z,32.1
2022-12-18T17:11:03.231Z,32
2022-12-18T17:32:21.515Z,31.6
2022-12-18T17:37:52.260Z,31.6
2022-12-18T17:42:50.865Z,31.5
2022-12-18T17:48:00.878Z,31.4
2022-12-18T17:53:25.680Z,31.4
2022-12-18T18:04:14.421Z,31.4
2022-12-18T18:09:49.565Z,31.3
2022-12-18T18:15:04.880Z,31.3
2022-12-18T18:20:06.362Z,31.3
2022-12-18T18:34:58.687Z,31.1
2022-12-18T18:40:31.843Z,31.1
2022-12-18T18:46:01.057Z,31
2022-12-18T18:57:36.613Z,30.9
2022-12-18T19:08:05.329Z,30.9
2022-12-18T19:13:24.798Z,30.8
2022-12-18T19:19:01.382Z,30.8
2022-12-18T19:24:35.382Z,30.7
2022-12-18T19:31:01.256Z,30.7
2022-12-18T19:42:00.703Z,30.5
2022-12-18T19:47:52.668Z,30.3
2022-12-18T19:53:34.560Z,29.9
2022-12-18T19:59:10.016Z,29.6
2022-12-18T20:05:25.952Z,29.4
2022-12-18T20:11:27.820Z,29.2
2022-12-18T20:17:11.543Z,29.1
2022-12-18T20:28:25.475Z,28.9
2022-12-18T20:33:50.017Z,28.9
2022-12-18T20:39:52.606Z,28.9
2022-12-18T20:45:46.123Z,28.8
2022-12-18T20:51:30.517Z,28.4
2022-12-18T20:57:14.613Z,28.3
2022-12-18T21:02:56.278Z,28.6
2022-12-18T21:08:42.178Z,29.4
2022-12-18T21:14:26.309Z,30.3
2022-12-18T21:25:53.015Z,31.6
2022-12-18T21:31:26.347Z,31.8
2022-12-18T21:37:20.678Z,32
2022-12-18T21:42:50.104Z,32.1
2022-12-18T21:48:45.597Z,32.1
2022-12-18T21:54:34.412Z,32.2
2022-12-18T22:00:19.896Z,32.2
2022-12-18T22:12:28.387Z,32.2
2022-12-18T22:18:17.083Z,32.2
2022-12-18T22:23:50.601Z,32.2
2022-12-18T22:29:31.324Z,32.2
2022-12-18T22:35:23.832Z,32.2
2022-12-18T22:41:15.154Z,32.2
2022-12-18T22:46:45.069Z,32.2
2022-12-18T22:52:41.488Z,32.2
2022-12-18T22:58:22.238Z,32.1
2022-12-18T23:03:58.043Z,32.1
2022-12-18T23:09:30.202Z,32.1
2022-12-18T23:15:22.884Z,32.1
2022-12-18T23:20:56.617Z,32.1
2022-12-18T23:26:44.576Z,32.1
2022-12-18T23:32:13.182Z,32.1
2022-12-18T23:38:39.102Z,32
2022-12-18T23:44:40.182Z,32
2022-12-18T23:50:12.955Z,32
2022-12-18T23:55:55.923Z,31.9
